createdAt,value
2019-04-26T00:00:44.788Z,7.22
2019-04-26T00:03:44.138Z,6.85
2019-04-26T00:06:30.973Z,6.80
2019-04-26T00:09:32.244Z,7.80
2019-04-26T00:12:46.812Z,7.15
2019-04-26T00:15:45.727Z,7.53
2019-04-26T00:18:32.320Z,7.78
2019-04-26T00:21:18.687Z,8.33
2019-04-26T00:24:05.275Z,7.85
2019-04-26T00:26:51.983Z,7.97
2019-04-26T00:29:38.439Z,8.00
2019-04-26T00:32:24.687Z,8.40
2019-04-26T00:35:11.456Z,7.85
2019-04-26T00:37:58.850Z,8.60
2019-04-26T00:40:45.787Z,7.87
2019-04-26T00:43:32.627Z,8.50
2019-04-26T00:46:23.029Z,8.38
2019-04-26T00:49:09.895Z,7.45
2019-04-26T00:51:56.716Z,8.48
2019-04-26T00:54:43.544Z,8.88
2019-04-26T00:57:31.915Z,7.65
2019-04-26T01:00:19.523Z,8.58
2019-04-26T01:03:06.695Z,8.20
2019-04-26T01:06:00.175Z,8.43
2019-04-26T01:08:42.136Z,8.58
2019-04-26T01:11:28.023Z,9.15
2019-04-26T01:14:15.489Z,9.08
2019-04-26T01:17:02.751Z,8.55
2019-04-26T01:19:52.094Z,9.55
2019-04-26T01:22:42.448Z,9.33
2019-04-26T01:25:42.063Z,9.20
2019-04-26T01:28:36.015Z,9.48
2019-04-26T01:31:23.999Z,9.15
2019-04-26T01:34:10.372Z,9.98
2019-04-26T01:36:58.016Z,9.65
2019-04-26T01:39:50.213Z,10.08
2019-04-26T01:42:54.943Z,10.05
2019-04-26T01:45:48.898Z,9.85
2019-04-26T01:48:49.906Z,9.95
2019-04-26T01:52:01.548Z,10.03
2019-04-26T01:54:47.692Z,9.63
2019-04-26T01:57:34.680Z,9.98
2019-04-26T02:00:36.915Z,10.00
2019-04-26T02:03:25.668Z,9.83
2019-04-26T02:06:24.809Z,9.88
2019-04-26T02:09:00.555Z,9.55
2019-04-26T02:11:47.047Z,9.83
2019-04-26T02:14:33.296Z,10.30
2019-04-26T02:17:20.853Z,10.35
2019-04-26T02:20:07.727Z,10.18
2019-04-26T02:23:04.711Z,10.25
2019-04-26T02:25:50.980Z,10.50
2019-04-26T02:28:37.959Z,10.88
2019-04-26T02:31:25.286Z,10.93
2019-04-26T02:34:13.850Z,11.25
2019-04-26T02:37:03.103Z,11.00
2019-04-26T02:39:50.846Z,10.85
2019-04-26T02:42:40.110Z,10.85
2019-04-26T02:46:19.733Z,10.58
2019-04-26T02:49:30.720Z,11.03
2019-04-26T02:52:25.489Z,10.40
2019-04-26T02:55:46.923Z,10.90
2019-04-26T02:58:41.300Z,10.32
2019-04-26T03:01:29.350Z,10.75
2019-04-26T03:04:16.873Z,10.30
2019-04-26T03:07:17.189Z,10.15
2019-04-26T03:10:04.267Z,9.88
2019-04-26T03:12:53.968Z,10.13
2019-04-26T03:16:04.197Z,9.65
2019-04-26T03:19:00.079Z,9.88
2019-04-26T03:21:57.242Z,9.98
2019-04-26T03:25:00.123Z,10.72
2019-04-26T03:27:59.968Z,9.70
2019-04-26T03:31:01.730Z,9.95
2019-04-26T03:34:16.486Z,10.35
2019-04-26T03:37:27.311Z,9.05
2019-04-26T03:40:37.890Z,9.55
2019-04-26T03:43:45.607Z,10.25
2019-04-26T03:46:45.550Z,9.50
2019-04-26T03:49:49.147Z,9.90
2019-04-26T03:53:18.127Z,9.80
2019-04-26T03:56:17.101Z,9.60
2019-04-26T03:59:32.587Z,9.85
2019-04-26T04:02:39.257Z,9.80
2019-04-26T04:05:40.234Z,9.50
2019-04-26T04:08:38.491Z,9.30
2019-04-26T04:11:31.215Z,9.33
2019-04-26T04:14:45.094Z,9.15
2019-04-26T04:17:48.251Z,9.25
2019-04-26T04:21:25.121Z,9.60
2019-04-26T04:24:27.190Z,9.30
2019-04-26T04:27:47.279Z,9.38
2019-04-26T04:30:51.090Z,9.10
2019-04-26T04:33:47.844Z,8.83
2019-04-26T04:36:45.892Z,8.63
2019-04-26T04:40:21.733Z,8.55
2019-04-26T04:43:41.861Z,8.68
2019-04-26T04:47:00.702Z,8.60
2019-04-26T04:49:58.312Z,9.53
2019-04-26T04:53:17.425Z,9.53
2019-04-26T04:56:33.272Z,9.53
2019-04-26T04:59:29.520Z,9.00
2019-04-26T05:02:44.816Z,8.05
2019-04-26T05:06:10.171Z,9.08
2019-04-26T05:09:11.072Z,8.83
2019-04-26T05:12:08.487Z,9.23
2019-04-26T05:15:29.536Z,9.08
2019-04-26T05:19:02.099Z,9.08
2019-04-26T05:22:03.111Z,8.93
2019-04-26T05:25:49.350Z,14.73
2019-04-26T05:29:03.195Z,10.03
2019-04-26T05:32:08.369Z,9.00
2019-04-26T05:35:05.820Z,8.25
2019-04-26T05:38:17.931Z,8.75
2019-04-26T05:41:28.120Z,8.38
2019-04-26T05:44:32.964Z,8.78
2019-04-26T05:47:33.223Z,8.40
2019-04-26T05:51:05.813Z,7.60
2019-04-26T05:54:29.615Z,7.92
2019-04-26T05:57:54.764Z,8.15
2019-04-26T06:01:21.784Z,7.78
2019-04-26T06:04:32.932Z,8.13
2019-04-26T06:07:34.564Z,8.18
2019-04-26T06:10:49.929Z,7.65
2019-04-26T06:14:06.818Z,7.37
2019-04-26T06:17:34.963Z,7.33
2019-04-26T06:20:44.244Z,7.40
2019-04-26T06:24:11.060Z,7.17
2019-04-26T06:27:56.772Z,7.10
2019-04-26T06:30:50.159Z,7.40
2019-04-26T06:34:11.839Z,6.95
2019-04-26T06:37:15.640Z,6.72
2019-04-26T06:40:09.757Z,7.40
2019-04-26T06:43:22.105Z,6.80
2019-04-26T06:46:51.834Z,6.97
2019-04-26T06:50:15.104Z,6.67
2019-04-26T06:53:16.288Z,6.40
2019-04-26T06:56:38.432Z,6.60
2019-04-26T06:59:36.613Z,6.80
2019-04-26T07:02:30.587Z,6.40
2019-04-26T07:05:26.209Z,6.20
2019-04-26T07:08:56.737Z,6.50
2019-04-26T07:12:14.704Z,6.47
2019-04-26T07:15:28.839Z,6.10
2019-04-26T07:18:44.040Z,6.22
2019-04-26T07:21:46.781Z,5.95
2019-04-26T07:25:17.692Z,6.28
2019-04-26T07:28:28.568Z,6.40
2019-04-26T07:31:36.032Z,5.78
2019-04-26T07:34:49.943Z,5.85
2019-04-26T07:38:06.900Z,6.00
2019-04-26T07:41:41.199Z,5.53
2019-04-26T07:45:07.493Z,5.85
2019-04-26T07:48:42.139Z,5.40
2019-04-26T07:52:02.944Z,6.00
2019-04-26T07:55:27.379Z,6.15
2019-04-26T07:58:49.987Z,5.97
2019-04-26T08:02:18.500Z,5.30
2019-04-26T08:05:17.092Z,5.65
2019-04-26T08:08:06.963Z,5.47
2019-04-26T08:11:10.742Z,5.50
2019-04-26T08:14:08.464Z,5.58
2019-04-26T08:17:10.916Z,5.53
2019-04-26T08:20:15.996Z,5.75
2019-04-26T08:23:09.039Z,5.37
2019-04-26T08:26:00.307Z,5.47
2019-04-26T08:28:49.948Z,5.47
2019-04-26T08:31:39.807Z,5.25
2019-04-26T08:34:33.659Z,5.28
2019-04-26T08:37:32.291Z,5.70
2019-04-26T08:40:30.104Z,5.47
2019-04-26T08:43:49.779Z,5.47
2019-04-26T08:46:57.019Z,5.67
2019-04-26T08:50:13.680Z,5.50
2019-04-26T08:53:03.171Z,5.55
2019-04-26T08:55:53.227Z,5.33
2019-04-26T08:58:43.340Z,5.62
2019-04-26T09:01:38.417Z,5.17
2019-04-26T09:04:35.491Z,4.97
2019-04-26T09:07:28.058Z,5.35
2019-04-26T09:10:16.899Z,5.30
2019-04-26T09:13:06.183Z,5.40
2019-04-26T09:16:14.626Z,5.28
2019-04-26T09:19:00.672Z,5.58
2019-04-26T09:21:53.720Z,5.28
2019-04-26T09:24:59.379Z,5.50
2019-04-26T09:27:52.358Z,5.10
2019-04-26T09:30:47.658Z,5.58
2019-04-26T09:33:45.522Z,5.45
2019-04-26T09:36:32.044Z,5.20
2019-04-26T09:39:19.911Z,4.92
2019-04-26T09:42:12.905Z,5.22
2019-04-26T09:45:07.543Z,5.08
2019-04-26T09:47:59.300Z,4.95
2019-04-26T09:50:48.015Z,4.72
2019-04-26T09:53:34.048Z,4.90
2019-04-26T09:56:20.511Z,4.85
2019-04-26T09:59:06.902Z,4.50
2019-04-26T10:01:55.471Z,4.97
2019-04-26T10:04:42.360Z,4.90
2019-04-26T10:07:28.300Z,4.95
2019-04-26T10:10:22.782Z,4.85
2019-04-26T10:13:17.155Z,4.80
2019-04-26T10:16:15.435Z,4.83
2019-04-26T10:19:08.293Z,4.60
2019-04-26T10:21:54.595Z,4.60
2019-04-26T10:24:40.997Z,4.30
2019-04-26T10:27:27.539Z,4.42
2019-04-26T10:30:15.841Z,4.58
2019-04-26T10:33:03.435Z,4.60
2019-04-26T10:35:52.619Z,4.20
2019-04-26T10:38:37.483Z,4.45
2019-04-26T10:41:24.104Z,4.08
2019-04-26T10:44:10.429Z,4.08
2019-04-26T10:46:59.868Z,4.45
2019-04-26T10:49:46.423Z,4.03
2019-04-26T10:52:38.675Z,4.20
2019-04-26T10:55:46.421Z,3.77
2019-04-26T10:58:46.188Z,4.03
2019-04-26T11:01:32.332Z,4.05
2019-04-26T11:04:18.751Z,3.77
2019-04-26T11:07:06.139Z,3.50
2019-04-26T11:09:54.801Z,3.58
2019-04-26T11:12:43.407Z,3.60
2019-04-26T11:15:32.665Z,3.60
2019-04-26T11:18:19.880Z,3.50
2019-04-26T11:21:05.780Z,3.47
2019-04-26T11:23:52.039Z,3.58
2019-04-26T11:26:37.876Z,3.62
2019-04-26T11:29:24.956Z,3.65
2019-04-26T11:32:11.952Z,4.30
2019-04-26T11:34:58.762Z,4.08
2019-04-26T11:37:46.458Z,3.83
2019-04-26T11:40:33.027Z,3.70
2019-04-26T11:43:19.542Z,3.75
2019-04-26T11:46:06.913Z,4.08
2019-04-26T11:48:58.845Z,3.80
2019-04-26T11:51:41.035Z,3.80
2019-04-26T11:54:27.563Z,3.70
2019-04-26T11:57:13.877Z,4.00
2019-04-26T12:00:01.334Z,4.30
2019-04-26T12:02:50.752Z,4.40
2019-04-26T12:05:44.412Z,4.05
2019-04-26T12:08:52.852Z,4.40
2019-04-26T12:11:49.037Z,3.72
2019-04-26T12:14:29.555Z,3.67
2019-04-26T12:17:15.813Z,3.98
2019-04-26T12:20:02.083Z,3.98
2019-04-26T12:22:49.087Z,3.90
2019-04-26T12:25:38.900Z,4.50
2019-04-26T12:28:23.395Z,4.40
2019-04-26T12:31:11.140Z,4.10
2019-04-26T12:33:57.515Z,3.70
2019-04-26T12:36:43.858Z,4.22
2019-04-26T12:39:32.361Z,4.25
2019-04-26T12:42:19.455Z,4.60
2019-04-26T12:45:27.388Z,4.58
2019-04-26T12:48:15.811Z,4.22
2019-04-26T12:51:03.335Z,4.28
2019-04-26T12:53:49.311Z,4.45
2019-04-26T12:56:35.755Z,4.20
2019-04-26T12:59:22.399Z,4.12
2019-04-26T13:02:10.389Z,4.28
2019-04-26T13:04:56.444Z,4.70
2019-04-26T13:07:44.769Z,4.72
2019-04-26T13:10:53.344Z,4.92
2019-04-26T13:13:45.565Z,4.53
2019-04-26T13:16:38.991Z,4.70
2019-04-26T13:19:25.419Z,4.62
2019-04-26T13:22:12.518Z,4.67
2019-04-26T13:24:59.704Z,5.55
2019-04-26T13:27:46.646Z,4.75
2019-04-26T13:30:33.451Z,4.87
2019-04-26T13:33:23.275Z,5.25
2019-04-26T13:36:08.929Z,4.60
2019-04-26T13:38:55.271Z,5.00
2019-04-26T13:41:41.927Z,5.12
2019-04-26T13:44:46.233Z,5.40
2019-04-26T13:47:52.529Z,5.62
2019-04-26T13:50:42.516Z,5.30
2019-04-26T13:53:28.708Z,5.00
2019-04-26T13:56:14.449Z,4.97
2019-04-26T13:59:00.863Z,4.65
2019-04-26T14:01:47.351Z,5.35
2019-04-26T14:04:37.021Z,5.22
2019-04-26T14:07:24.443Z,4.95
2019-04-26T14:10:09.604Z,5.00
2019-04-26T14:12:55.793Z,5.60
2019-04-26T14:15:44.023Z,5.35
2019-04-26T14:18:29.840Z,5.45
2019-04-26T14:21:16.473Z,5.35
2019-04-26T14:24:31.548Z,5.62
2019-04-26T14:27:25.015Z,5.17
2019-04-26T14:30:11.147Z,5.25
2019-04-26T14:32:58.892Z,5.20
2019-04-26T14:35:46.253Z,5.55
2019-04-26T14:38:39.336Z,5.80
2019-04-26T14:41:22.759Z,6.33
2019-04-26T14:44:15.887Z,5.87
2019-04-26T14:46:58.002Z,5.67
2019-04-26T14:49:44.312Z,6.00
2019-04-26T14:52:30.447Z,6.30
2019-04-26T14:55:21.219Z,5.60
2019-04-26T14:58:04.783Z,5.65
2019-04-26T15:00:55.848Z,5.92
2019-04-26T15:03:51.372Z,6.42
2019-04-26T15:06:42.341Z,6.12
2019-04-26T15:09:33.358Z,7.10
2019-04-26T15:12:16.549Z,6.78
2019-04-26T15:15:04.319Z,7.55
2019-04-26T15:17:55.079Z,8.10
2019-04-26T15:20:40.587Z,8.00
2019-04-26T15:23:27.030Z,8.85
2019-04-26T15:26:13.298Z,8.78
2019-04-26T15:28:59.912Z,7.85
2019-04-26T15:31:46.111Z,7.83
2019-04-26T15:34:32.032Z,8.18
2019-04-26T15:37:20.236Z,8.05
2019-04-26T15:40:31.873Z,7.40
2019-04-26T15:43:32.644Z,7.95
2019-04-26T15:46:36.379Z,7.97
2019-04-26T15:49:45.015Z,7.97
2019-04-26T15:52:34.122Z,8.50
2019-04-26T15:55:19.346Z,9.00
2019-04-26T15:58:08.480Z,8.88
2019-04-26T16:00:54.256Z,8.65
2019-04-26T16:03:40.947Z,9.15
2019-04-26T16:06:28.304Z,8.93
2019-04-26T16:09:19.860Z,9.88
2019-04-26T16:12:03.638Z,9.78
2019-04-26T16:14:51.992Z,14.05
2019-04-26T16:17:40.248Z,12.20
2019-04-26T16:20:27.351Z,10.43
2019-04-26T16:23:13.563Z,10.35
2019-04-26T16:25:59.850Z,10.25
2019-04-26T16:29:18.171Z,10.48
2019-04-26T16:32:23.034Z,10.20
2019-04-26T16:35:09.500Z,9.55
2019-04-26T16:38:00.170Z,10.48
2019-04-26T16:40:28.720Z,10.35
2019-04-26T16:42:59.537Z,9.80
2019-04-26T16:45:26.347Z,10.50
2019-04-26T16:47:53.847Z,11.83
2019-04-26T16:50:27.996Z,22.85
2019-04-26T16:52:50.730Z,32.55
2019-04-26T16:55:47.917Z,99.90
2019-04-26T16:58:06.753Z,62.17
2019-04-26T17:00:59.472Z,42.00
2019-04-26T17:03:07.948Z,28.85
2019-04-26T17:08:05.037Z,33.23
2019-04-26T17:09:41.877Z,27.52
2019-04-26T17:10:56.328Z,21.17
2019-04-26T17:13:24.014Z,17.10
2019-04-26T17:15:52.013Z,16.52
2019-04-26T17:18:23.901Z,16.50
2019-04-26T17:20:50.048Z,15.35
2019-04-26T17:23:36.091Z,16.35
2019-04-26T17:26:36.439Z,16.05
2019-04-26T17:29:23.635Z,15.55
2019-04-26T17:32:13.939Z,16.00
2019-04-26T17:34:59.487Z,14.23
2019-04-26T17:37:45.279Z,15.70
2019-04-26T17:40:36.679Z,16.45
2019-04-26T17:43:21.105Z,15.60
2019-04-26T17:46:07.889Z,15.55
2019-04-26T17:48:54.213Z,15.43
2019-04-26T17:51:44.183Z,15.23
2019-04-26T17:54:45.614Z,14.38
2019-04-26T17:56:58.241Z,12.58
2019-04-26T17:59:33.325Z,12.18
2019-04-26T18:02:00.744Z,14.25
2019-04-26T18:04:34.522Z,13.75
2019-04-26T18:07:03.657Z,15.20
2019-04-26T18:09:44.018Z,13.55
2019-04-26T18:12:09.839Z,16.10
2019-04-26T18:14:56.086Z,15.13
2019-04-26T18:18:09.742Z,20.12
2019-04-26T18:21:20.264Z,18.57
2019-04-26T18:24:10.788Z,27.25
2019-04-26T18:27:04.497Z,17.30
2019-04-26T18:29:53.164Z,15.63
2019-04-26T18:32:47.551Z,15.68
2019-04-26T18:35:31.200Z,15.83
2019-04-26T18:38:17.587Z,13.93
2019-04-26T18:41:03.777Z,14.53
2019-04-26T18:43:54.046Z,14.63
2019-04-26T18:46:47.095Z,15.25
2019-04-26T18:49:32.997Z,14.47
2019-04-26T18:52:19.377Z,12.82
2019-04-26T18:55:21.575Z,11.75
2019-04-26T18:58:08.492Z,12.60
2019-04-26T19:00:57.393Z,12.53
2019-04-26T19:03:44.917Z,12.10
2019-04-26T19:06:33.550Z,12.25
2019-04-26T19:09:21.507Z,11.38
2019-04-26T19:12:09.935Z,11.60
2019-04-26T19:15:11.541Z,11.45
2019-04-26T19:18:17.968Z,13.93
2019-04-26T19:21:14.024Z,11.53
2019-04-26T19:24:07.198Z,10.65
2019-04-26T19:26:50.010Z,11.40
2019-04-26T19:29:37.522Z,11.57
2019-04-26T19:32:23.750Z,11.22
2019-04-26T19:35:13.864Z,11.10
2019-04-26T19:37:58.479Z,11.10
2019-04-26T19:40:47.811Z,10.88
2019-04-26T19:43:35.212Z,15.45
2019-04-26T19:46:37.328Z,15.38
2019-04-26T19:49:41.949Z,11.20
2019-04-26T19:52:39.501Z,11.35
2019-04-26T19:55:32.915Z,12.07
2019-04-26T19:58:22.826Z,11.33
2019-04-26T20:01:09.501Z,12.10
2019-04-26T20:03:55.719Z,10.78
2019-04-26T20:06:43.107Z,10.45
2019-04-26T20:09:29.661Z,10.70
2019-04-26T20:12:15.884Z,10.30
2019-04-26T20:15:04.314Z,10.58
2019-04-26T20:17:59.275Z,10.63
2019-04-26T20:20:41.447Z,9.98
2019-04-26T20:23:27.626Z,10.90
2019-04-26T20:26:14.028Z,10.25
2019-04-26T20:29:00.387Z,10.55
2019-04-26T20:32:02.171Z,10.65
2019-04-26T20:35:15.282Z,10.20
2019-04-26T20:38:04.708Z,10.20
2019-04-26T20:40:49.539Z,10.25
2019-04-26T20:43:42.156Z,9.55
2019-04-26T20:46:25.088Z,10.38
2019-04-26T20:49:12.323Z,10.28
2019-04-26T20:51:59.504Z,9.65
2019-04-26T20:54:46.576Z,9.90
2019-04-26T20:57:34.570Z,9.53
2019-04-26T21:00:22.513Z,8.75
2019-04-26T21:03:21.174Z,9.43
2019-04-26T21:05:59.142Z,9.58
2019-04-26T21:08:45.813Z,10.10
2019-04-26T21:11:37.280Z,9.40
2019-04-26T21:14:21.397Z,9.78
2019-04-26T21:17:08.021Z,9.35
2019-04-26T21:19:58.433Z,9.28
2019-04-26T21:22:43.512Z,9.38
2019-04-26T21:25:37.271Z,9.60
2019-04-26T21:28:48.462Z,9.23
2019-04-26T21:31:47.185Z,9.83
2019-04-26T21:34:35.670Z,9.10
2019-04-26T21:37:31.004Z,9.75
2019-04-26T21:40:37.617Z,9.58
2019-04-26T21:43:24.849Z,8.48
2019-04-26T21:46:18.689Z,9.58
2019-04-26T21:48:59.488Z,8.78
2019-04-26T21:51:51.158Z,9.13
2019-04-26T21:54:34.463Z,8.90
2019-04-26T21:57:25.024Z,9.53
2019-04-26T22:00:33.346Z,9.73
2019-04-26T22:03:22.356Z,9.35
2019-04-26T22:06:08.679Z,10.00
2019-04-26T22:09:21.328Z,9.28
2019-04-26T22:12:10.944Z,9.23
2019-04-26T22:15:35.813Z,9.23
2019-04-26T22:18:25.467Z,8.85
2019-04-26T22:21:34.023Z,8.80
2019-04-26T22:24:28.876Z,9.28
2019-04-26T22:27:17.475Z,9.35
2019-04-26T22:30:09.123Z,9.35
2019-04-26T22:32:58.410Z,9.33
2019-04-26T22:35:43.274Z,9.15
2019-04-26T22:38:29.656Z,8.70
2019-04-26T22:41:15.877Z,9.25
2019-04-26T22:44:13.979Z,8.85
2019-04-26T22:47:33.885Z,8.88
2019-04-26T22:50:24.990Z,8.08
2019-04-26T22:53:11.930Z,7.40
2019-04-26T22:56:01.411Z,8.30
2019-04-26T22:58:46.487Z,8.58
2019-04-26T23:01:35.025Z,8.38
2019-04-26T23:04:25.463Z,8.50
2019-04-26T23:07:13.581Z,8.60
2019-04-26T23:09:59.859Z,8.43
2019-04-26T23:13:07.574Z,8.73
2019-04-26T23:16:14.341Z,8.20
2019-04-26T23:19:15.213Z,8.10
2019-04-26T23:22:04.003Z,10.30
2019-04-26T23:24:54.471Z,9.55
2019-04-26T23:27:39.539Z,10.13
2019-04-26T23:30:27.683Z,8.95
2019-04-26T23:33:15.136Z,9.30
2019-04-26T23:36:03.274Z,8.08
2019-04-26T23:38:49.475Z,8.60
2019-04-26T23:41:37.551Z,9.00
2019-04-26T23:44:24.547Z,8.23
2019-04-26T23:47:20.647Z,8.30
2019-04-26T23:49:58.939Z,8.53
2019-04-26T23:52:49.282Z,8.45
2019-04-26T23:55:33.794Z,9.08
2019-04-26T23:58:21.062Z,8.23
